N395T KISP-KBVY
Flight info
| Callsign | N395T |
|---|---|
| Flight time | N/A |
| Altitude | 13000 |
| Route | ORCHA T320 GON YANTC DREEM3 |
| Aircraft | PC12/L-SDFGRWY/S |
Departure
| Time | 2026-04-28 22:58 |
|---|---|
| Airport | Long Island MacArthur Airport (KISP) |
Arrival
| Time | N/A |
|---|---|
| Airport | Beverly Regional Airport (KBVY) |
| Time | Latitude | Longitude | Altitude | Speed | Heading |
|---|---|---|---|---|---|
| 2026-04-28 22:36 | 40.79825 | -73.10899 | 91 ft | 0 kts | 92° |
| 2026-04-28 22:54 | 40.79825 | -73.10898 | 91 ft | 0 kts | 92° |
| 2026-04-28 22:55 | 40.79820 | -73.10880 | 93 ft | 4 kts | 129° |
| 2026-04-28 22:55 | 40.79806 | -73.10842 | 91 ft | 5 kts | 94° |
| 2026-04-28 22:55 | 40.79803 | -73.10763 | 91 ft | 8 kts | 90° |
| 2026-04-28 22:55 | 40.79842 | -73.10721 | 91 ft | 10 kts | 2° |
| 2026-04-28 22:56 | 40.79920 | -73.10719 | 91 ft | 13 kts | 1° |
| 2026-04-28 22:56 | 40.80006 | -73.10720 | 91 ft | 9 kts | 360° |
| 2026-04-28 22:56 | 40.80072 | -73.10720 | 91 ft | 11 kts | 360° |
| 2026-04-28 22:56 | 40.80151 | -73.10696 | 90 ft | 14 kts | 58° |
| 2026-04-28 22:57 | 40.80108 | -73.10580 | 91 ft | 22 kts | 134° |
| 2026-04-28 22:57 | 40.79885 | -73.10286 | 95 ft | 68 kts | 134° |
| 2026-04-28 22:57 | 40.79468 | -73.09728 | 136 ft | 99 kts | 134° |
| 2026-04-28 22:57 | 40.78933 | -73.09001 | 397 ft | 110 kts | 133° |
| 2026-04-28 22:58 | 40.78498 | -73.08310 | 1014 ft | 99 kts | 126° |
| 2026-04-28 22:58 | 40.78118 | -73.07381 | 1186 ft | 129 kts | 114° |
| 2026-04-28 22:58 | 40.77891 | -73.06202 | 1660 ft | 138 kts | 97° |
| 2026-04-28 22:58 | 40.77848 | -73.04889 | 2181 ft | 149 kts | 89° |
| 2026-04-28 22:59 | 40.77870 | -73.03463 | 2626 ft | 159 kts | 88° |
| 2026-04-28 22:59 | 40.78031 | -73.02029 | 3059 ft | 163 kts | 74° |
| 2026-04-28 22:59 | 40.78337 | -73.00524 | 3451 ft | 172 kts | 75° |
| 2026-04-28 22:59 | 40.78636 | -72.98989 | 3813 ft | 178 kts | 75° |
| 2026-04-28 23:00 | 40.78945 | -72.97383 | 4211 ft | 182 kts | 75° |
| 2026-04-28 23:00 | 40.79260 | -72.95751 | 4594 ft | 185 kts | 75° |
| 2026-04-28 23:00 | 40.79580 | -72.94094 | 4981 ft | 187 kts | 75° |
| 2026-04-28 23:00 | 40.79902 | -72.92425 | 5382 ft | 188 kts | 75° |
| 2026-04-28 23:01 | 40.80226 | -72.90748 | 5780 ft | 189 kts | 75° |
| 2026-04-28 23:01 | 40.80552 | -72.89057 | 6192 ft | 191 kts | 75° |
| 2026-04-28 23:01 | 40.80882 | -72.87341 | 6545 ft | 195 kts | 75° |
| 2026-04-28 23:01 | 40.81220 | -72.85583 | 6808 ft | 202 kts | 75° |
| 2026-04-28 23:02 | 40.81571 | -72.83758 | 7085 ft | 205 kts | 75° |
| 2026-04-28 23:02 | 40.81919 | -72.81947 | 7390 ft | 206 kts | 75° |
| 2026-04-28 23:02 | 40.82271 | -72.80114 | 7707 ft | 206 kts | 75° |
| 2026-04-28 23:02 | 40.82625 | -72.78269 | 8025 ft | 207 kts | 75° |
| 2026-04-28 23:03 | 40.82978 | -72.76427 | 8351 ft | 207 kts | 75° |
| 2026-04-28 23:03 | 40.83330 | -72.74587 | 8699 ft | 207 kts | 75° |
| 2026-04-28 23:03 | 40.83681 | -72.72752 | 9031 ft | 206 kts | 75° |
| 2026-04-28 23:03 | 40.84032 | -72.70917 | 9362 ft | 206 kts | 75° |
| 2026-04-28 23:04 | 40.84382 | -72.69081 | 9701 ft | 206 kts | 75° |
| 2026-04-28 23:04 | 40.85079 | -72.65431 | 10347 ft | 206 kts | 74° |
| 2026-04-28 23:04 | 40.85431 | -72.63586 | 10593 ft | 210 kts | 74° |
| 2026-04-28 23:05 | 40.85551 | -72.62956 | 10667 ft | 211 kts | 74° |